Caden Foss — WDJ6190 — position and weather

sailwx.info

Track history (hours):
 
Tides and Currents Weather Stations Pressure Air Temp Water Temp Dewpoint Dewpoint Depression Visibility Wind Speed Wind Dir Waves Ship Positions

Caden Foss

Owner: Foss Maritime Co, Seattle, WA. More information available from US FCC via Universal Licensing System and Coast Guard Vessel Documentation Center.

Last reported at 2018-Jan-21 16:29 UTC. Time now 2018-Jan-21 16:50 UTC.
Position N 37°54' W 122°22'.

Length 34 m; draft 6.1 m.

Type: Tug. MMSI: 367795270.

Date/timePositionNaut miles runAvg speedWind from/ knotsBaromVisibWave heightAir tempDewpointWater temp
2018-Jan-21 16:29N 37°54' W 122°22'0 0.0
2018-Jan-21 15:53N 37°54' W 122°22'0 0.0
2018-Jan-21 15:29N 37°54' W 122°22'0 0.0
2018-Jan-21 14:56N 37°54' W 122°22'0 0.0
2018-Jan-21 14:26N 37°54' W 122°22'0 0.0
2018-Jan-21 13:59N 37°54' W 122°22'0 0.0
2018-Jan-21 13:29N 37°54' W 122°22'0 0.0
2018-Jan-21 12:59N 37°54' W 122°22'1 1.9
2018-Jan-21 12:30N 37°55' W 122°22'0 0.0
2018-Jan-21 12:00N 37°55' W 122°22'0 0.8
2018-Jan-21 11:30N 37°55' W 122°22'0 0.2
2018-Jan-21 11:00N 37°55' W 122°22'0 0.6
2018-Jan-21 10:30N 37°55' W 122°22'1 2.3
2018-Jan-21 10:00N 37°54' W 122°23'4 8.8
2018-Jan-21 09:30N 37°58' W 122°26'5 9.4
2018-Jan-21 09:00N 38°02' W 122°22'710.7
2018-Jan-21 08:21N 38°04' W 122°13'4 0.3
2018-Jan-20 16:21N 38°02' W 122°08'0 0.1
2018-Jan-20 15:29N 38°02' W 122°08'3 5.2
2018-Jan-20 15:00N 38°03' W 122°11'5 9.7
2018-Jan-20 14:30N 38°04' W 122°17'5 9.9
2018-Jan-20 14:01N 38°02' W 122°23'5 9.7
2018-Jan-20 13:31N 37°58' W 122°27'5 9.0
2018-Jan-20 13:01N 37°53' W 122°26'4 8.3
2018-Jan-20 12:31N 37°49' W 122°25'4 7.0
2018-Jan-20 12:00N 37°49' W 122°30'1 1.6
2018-Jan-20 11:31N 37°48' W 122°30'0 0.2
2018-Jan-20 11:01N 37°48' W 122°30'2 3.4
2018-Jan-20 10:31N 37°49' W 122°29'3 5.6
2018-Jan-20 10:00N 37°52' W 122°27'4 8.1
2018-Jan-20 09:30N 37°55' W 122°25'0 0.1
2018-Jan-20 08:58N 37°55' W 122°25'0 0.0
2018-Jan-20 08:28N 37°55' W 122°25'0 0.0
2018-Jan-20 07:58N 37°55' W 122°25'0 0.0
2018-Jan-20 07:28N 37°55' W 122°25'0 0.0
2018-Jan-20 06:58N 37°55' W 122°25'0 0.0
2018-Jan-20 06:28N 37°55' W 122°25'0 0.0
2018-Jan-20 05:58N 37°55' W 122°25'0 0.0
2018-Jan-20 05:28N 37°55' W 122°25'0 0.0
2018-Jan-20 04:58N 37°55' W 122°25'0 0.0
2018-Jan-20 04:28N 37°55' W 122°25'0 0.0
2018-Jan-20 03:58N 37°55' W 122°25'0 0.0
2018-Jan-20 03:28N 37°55' W 122°25'0 0.0
2018-Jan-20 02:58N 37°55' W 122°25'0 0.0
2018-Jan-20 02:28N 37°55' W 122°25'0 0.0
2018-Jan-20 01:58N 37°55' W 122°25'0 0.0
2018-Jan-20 01:28N 37°55' W 122°25'0 0.0
2018-Jan-20 00:58N 37°55' W 122°25'0 0.0
2018-Jan-20 00:30N 37°55' W 122°25'4 8.6
2018-Jan-20 00:00N 37°60' W 122°25'611.2
2018-Jan-19 23:30N 38°03' W 122°19'8 3.4
2018-Jan-19 21:07N 38°02' W 122°09'1 4.7
2018-Jan-19 20:59N 38°02' W 122°09'4 9.0
2018-Jan-19 20:30N 38°04' W 122°14'610.3
2018-Jan-19 19:54N 38°02' W 122°22'510.6
2018-Jan-19 19:28N 37°59' W 122°26'510.3
2018-Jan-19 19:00N 37°54' W 122°26'5 9.5
2018-Jan-19 18:30N 37°50' W 122°24'4 7.9
2018-Jan-19 18:00N 37°46' W 122°21'3 5.8
2018-Jan-19 17:30N 37°44' W 122°20'0 0.2
2018-Jan-19 17:00N 37°44' W 122°20'510.4
2018-Jan-19 16:30N 37°49' W 122°21'1 1.1
2018-Jan-19 15:59N 37°49' W 122°22'0 0.0
2018-Jan-19 15:29N 37°49' W 122°22'0 0.0
2018-Jan-19 14:59N 37°49' W 122°22'0 0.0
2018-Jan-19 14:29N 37°49' W 122°22'0 0.0
2018-Jan-19 13:59N 37°49' W 122°22'0 0.0
2018-Jan-19 13:29N 37°49' W 122°22'0 0.1
2018-Jan-19 12:59N 37°49' W 122°22'0 0.1
2018-Jan-19 12:29N 37°49' W 122°22'0 0.0
2018-Jan-19 11:59N 37°49' W 122°22'2 4.4
2018-Jan-19 11:30N 37°51' W 122°23'3 6.8
2018-Jan-19 11:00N 37°54' W 122°23'1 2.4
2018-Jan-19 10:30N 37°55' W 122°22'0 0.6
2018-Jan-19 10:00N 37°55' W 122°22'1 1.8
2018-Jan-19 09:30N 37°54' W 122°22'0 0.0
2018-Jan-19 09:00N 37°54' W 122°22'0 0.0
2018-Jan-19 08:28N 37°54' W 122°22'0 0.0
2018-Jan-19 08:01N 37°54' W 122°22'0 0.0
2018-Jan-19 07:30N 37°54' W 122°22'0 0.0
2018-Jan-19 07:00N 37°54' W 122°22'0 0.0
2018-Jan-19 06:29N 37°54' W 122°22'0 0.0
2018-Jan-19 06:00N 37°54' W 122°22'0 0.0
2018-Jan-19 05:29N 37°54' W 122°22'0 0.0
2018-Jan-19 05:00N 37°54' W 122°22'0 0.5
2018-Jan-19 04:30N 37°54' W 122°22'0 0.6
2018-Jan-19 04:00N 37°54' W 122°22'1 1.4
2018-Jan-19 03:30N 37°54' W 122°23'1 1.8
2018-Jan-19 03:00N 37°54' W 122°24'2 4.5
2018-Jan-19 02:30N 37°53' W 122°25'2 4.1
2018-Jan-19 02:00N 37°54' W 122°24'2 3.6
2018-Jan-19 01:30N 37°55' W 122°22'0 0.1
2018-Jan-19 00:59N 37°55' W 122°22'1 2.0
2018-Jan-19 00:30N 37°54' W 122°22'3 6.1
2018-Jan-19 00:00N 37°55' W 122°26'0 0.6
2018-Jan-18 23:30N 37°55' W 122°25'2 4.9
2018-Jan-18 23:00N 37°54' W 122°22'0 0.0
2018-Jan-18 22:31N 37°54' W 122°22'0 0.0
2018-Jan-18 22:00N 37°54' W 122°22'0 0.0
2018-Jan-18 21:30N 37°54' W 122°22'3 5.2
2018-Jan-18 21:00N 37°55' W 122°26'2 4.3
2018-Jan-18 20:30N 37°53' W 122°25'4 7.4
2018-Jan-18 20:00N 37°49' W 122°26'4 7.6
2018-Jan-18 19:30N 37°48' W 122°30'0 0.7
2018-Jan-18 19:00N 37°48' W 122°30'1 1.2
2018-Jan-18 18:30N 37°49' W 122°30'1 2.7
2018-Jan-18 18:00N 37°49' W 122°28'5 9.2
2018-Jan-18 17:30N 37°51' W 122°23'2 3.2
2018-Jan-18 16:53N 37°49' W 122°22'0 0.0
2018-Jan-18 16:26N 37°49' W 122°22'0 0.0
2018-Jan-18 15:50N 37°49' W 122°22'0 0.1
2018-Jan-18 15:29N 37°49' W 122°22'1 2.5
2018-Jan-18 15:00N 37°48' W 122°20'0 0.5
2018-Jan-18 14:30N 37°49' W 122°20'1 1.1
2018-Jan-18 14:00N 37°49' W 122°20'1 2.4
2018-Jan-18 13:30N 37°48' W 122°21'0 0.4
2018-Jan-18 13:01N 37°48' W 122°21'0 0.8
2018-Jan-18 12:30N 37°48' W 122°21'1 3.0
2018-Jan-18 12:01N 37°48' W 122°19'0 0.0
2018-Jan-18 11:31N 37°48' W 122°19'0 0.4
2018-Jan-18 11:00N 37°48' W 122°19'0 0.0
2018-Jan-18 10:30N 37°48' W 122°19'0 0.0
2018-Jan-18 10:00N 37°48' W 122°19'5 9.5
2018-Jan-18 09:30N 37°49' W 122°25'510.1
2018-Jan-18 09:00N 37°49' W 122°31'1 2.2
2018-Jan-18 08:30N 37°49' W 122°30'4 8.8
2018-Jan-18 08:01N 37°51' W 122°25'4 8.2
2018-Jan-18 07:30N 37°55' W 122°25'1 1.5
2018-Jan-18 07:00N 37°56' W 122°25'0 0.6
2018-Jan-18 06:30N 37°55' W 122°25'0 0.0
2018-Jan-18 06:00N 37°55' W 122°25'0 0.0
2018-Jan-18 05:30N 37°55' W 122°25'0 0.0
2018-Jan-18 05:00N 37°55' W 122°25'0 0.0
2018-Jan-18 04:30N 37°55' W 122°25'0 0.0
2018-Jan-18 04:00N 37°55' W 122°25'0 0.0
2018-Jan-18 03:20N 37°55' W 122°25'2 5.7
2018-Jan-18 03:00N 37°53' W 122°25'5 9.2
2018-Jan-18 02:31N 37°50' W 122°22'4 7.1
2018-Jan-18 02:01N 37°47' W 122°18'0 0.9
2018-Jan-18 01:30N 37°48' W 122°17'1 2.6
2018-Jan-18 01:00N 37°48' W 122°19'1 1.0
2018-Jan-18 00:01N 37°47' W 122°18'0 3.9
2018-Jan-17 23:58N 37°48' W 122°18'  
Track history (hours):
 
Tides and Currents Weather Stations Pressure Air Temp Water Temp Dewpoint Dewpoint Depression Visibility Wind Speed Wind Dir Waves Ship Positions

Caden Foss

Owner: Foss Maritime Co, Seattle, WA. More information available from US FCC via Universal Licensing System and Coast Guard Vessel Documentation Center.

Last reported at 2018-Jan-21 16:29 UTC. Time now 2018-Jan-21 16:50 UTC.
Position N 37°54' W 122°22'.

Length 34 m; draft 6.1 m.

Type: Tug. MMSI: 367795270.

Date/timePositionNaut miles runAvg speedWind from/ knotsBaromVisibWave heightAir tempDewpointWater temp
2018-Jan-21 16:29N 37°54' W 122°22'0 0.0
2018-Jan-21 15:53N 37°54' W 122°22'0 0.0
2018-Jan-21 15:29N 37°54' W 122°22'0 0.0
2018-Jan-21 14:56N 37°54' W 122°22'0 0.0
2018-Jan-21 14:26N 37°54' W 122°22'0 0.0
2018-Jan-21 13:59N 37°54' W 122°22'0 0.0
2018-Jan-21 13:29N 37°54' W 122°22'0 0.0
2018-Jan-21 12:59N 37°54' W 122°22'1 1.9
2018-Jan-21 12:30N 37°55' W 122°22'0 0.0
2018-Jan-21 12:00N 37°55' W 122°22'0 0.8
2018-Jan-21 11:30N 37°55' W 122°22'0 0.2
2018-Jan-21 11:00N 37°55' W 122°22'0 0.6
2018-Jan-21 10:30N 37°55' W 122°22'1 2.3
2018-Jan-21 10:00N 37°54' W 122°23'4 8.8
2018-Jan-21 09:30N 37°58' W 122°26'5 9.4
2018-Jan-21 09:00N 38°02' W 122°22'710.7
2018-Jan-21 08:21N 38°04' W 122°13'4 0.3
2018-Jan-20 16:21N 38°02' W 122°08'0 0.1
2018-Jan-20 15:29N 38°02' W 122°08'3 5.2
2018-Jan-20 15:00N 38°03' W 122°11'5 9.7
2018-Jan-20 14:30N 38°04' W 122°17'5 9.9
2018-Jan-20 14:01N 38°02' W 122°23'5 9.7
2018-Jan-20 13:31N 37°58' W 122°27'5 9.0
2018-Jan-20 13:01N 37°53' W 122°26'4 8.3
2018-Jan-20 12:31N 37°49' W 122°25'4 7.0
2018-Jan-20 12:00N 37°49' W 122°30'1 1.6
2018-Jan-20 11:31N 37°48' W 122°30'0 0.2
2018-Jan-20 11:01N 37°48' W 122°30'2 3.4
2018-Jan-20 10:31N 37°49' W 122°29'3 5.6
2018-Jan-20 10:00N 37°52' W 122°27'4 8.1
2018-Jan-20 09:30N 37°55' W 122°25'0 0.1
2018-Jan-20 08:58N 37°55' W 122°25'0 0.0
2018-Jan-20 08:28N 37°55' W 122°25'0 0.0
2018-Jan-20 07:58N 37°55' W 122°25'0 0.0
2018-Jan-20 07:28N 37°55' W 122°25'0 0.0
2018-Jan-20 06:58N 37°55' W 122°25'0 0.0
2018-Jan-20 06:28N 37°55' W 122°25'0 0.0
2018-Jan-20 05:58N 37°55' W 122°25'0 0.0
2018-Jan-20 05:28N 37°55' W 122°25'0 0.0
2018-Jan-20 04:58N 37°55' W 122°25'0 0.0
2018-Jan-20 04:28N 37°55' W 122°25'0 0.0
2018-Jan-20 03:58N 37°55' W 122°25'0 0.0
2018-Jan-20 03:28N 37°55' W 122°25'0 0.0
2018-Jan-20 02:58N 37°55' W 122°25'0 0.0
2018-Jan-20 02:28N 37°55' W 122°25'0 0.0
2018-Jan-20 01:58N 37°55' W 122°25'0 0.0
2018-Jan-20 01:28N 37°55' W 122°25'0 0.0
2018-Jan-20 00:58N 37°55' W 122°25'0 0.0
2018-Jan-20 00:30N 37°55' W 122°25'4 8.6
2018-Jan-20 00:00N 37°60' W 122°25'611.2
2018-Jan-19 23:30N 38°03' W 122°19'8 3.4
2018-Jan-19 21:07N 38°02' W 122°09'1 4.7
2018-Jan-19 20:59N 38°02' W 122°09'4 9.0
2018-Jan-19 20:30N 38°04' W 122°14'610.3
2018-Jan-19 19:54N 38°02' W 122°22'510.6
2018-Jan-19 19:28N 37°59' W 122°26'510.3
2018-Jan-19 19:00N 37°54' W 122°26'5 9.5
2018-Jan-19 18:30N 37°50' W 122°24'4 7.9
2018-Jan-19 18:00N 37°46' W 122°21'3 5.8
2018-Jan-19 17:30N 37°44' W 122°20'0 0.2
2018-Jan-19 17:00N 37°44' W 122°20'510.4
2018-Jan-19 16:30N 37°49' W 122°21'1 1.1
2018-Jan-19 15:59N 37°49' W 122°22'0 0.0
2018-Jan-19 15:29N 37°49' W 122°22'0 0.0
2018-Jan-19 14:59N 37°49' W 122°22'0 0.0
2018-Jan-19 14:29N 37°49' W 122°22'0 0.0
2018-Jan-19 13:59N 37°49' W 122°22'0 0.0
2018-Jan-19 13:29N 37°49' W 122°22'0 0.1
2018-Jan-19 12:59N 37°49' W 122°22'0 0.1
2018-Jan-19 12:29N 37°49' W 122°22'0 0.0
2018-Jan-19 11:59N 37°49' W 122°22'2 4.4
2018-Jan-19 11:30N 37°51' W 122°23'3 6.8
2018-Jan-19 11:00N 37°54' W 122°23'1 2.4
2018-Jan-19 10:30N 37°55' W 122°22'0 0.6
2018-Jan-19 10:00N 37°55' W 122°22'1 1.8
2018-Jan-19 09:30N 37°54' W 122°22'0 0.0
2018-Jan-19 09:00N 37°54' W 122°22'0 0.0
2018-Jan-19 08:28N 37°54' W 122°22'0 0.0
2018-Jan-19 08:01N 37°54' W 122°22'0 0.0
2018-Jan-19 07:30N 37°54' W 122°22'0 0.0
2018-Jan-19 07:00N 37°54' W 122°22'0 0.0
2018-Jan-19 06:29N 37°54' W 122°22'0 0.0
2018-Jan-19 06:00N 37°54' W 122°22'0 0.0
2018-Jan-19 05:29N 37°54' W 122°22'0 0.0
2018-Jan-19 05:00N 37°54' W 122°22'0 0.5
2018-Jan-19 04:30N 37°54' W 122°22'0 0.6
2018-Jan-19 04:00N 37°54' W 122°22'1 1.4
2018-Jan-19 03:30N 37°54' W 122°23'1 1.8
2018-Jan-19 03:00N 37°54' W 122°24'2 4.5
2018-Jan-19 02:30N 37°53' W 122°25'2 4.1
2018-Jan-19 02:00N 37°54' W 122°24'2 3.6
2018-Jan-19 01:30N 37°55' W 122°22'0 0.1
2018-Jan-19 00:59N 37°55' W 122°22'1 2.0
2018-Jan-19 00:30N 37°54' W 122°22'3 6.1
2018-Jan-19 00:00N 37°55' W 122°26'0 0.6
2018-Jan-18 23:30N 37°55' W 122°25'2 4.9
2018-Jan-18 23:00N 37°54' W 122°22'0 0.0
2018-Jan-18 22:31N 37°54' W 122°22'0 0.0
2018-Jan-18 22:00N 37°54' W 122°22'0 0.0
2018-Jan-18 21:30N 37°54' W 122°22'3 5.2
2018-Jan-18 21:00N 37°55' W 122°26'2 4.3
2018-Jan-18 20:30N 37°53' W 122°25'4 7.4
2018-Jan-18 20:00N 37°49' W 122°26'4 7.6
2018-Jan-18 19:30N 37°48' W 122°30'0 0.7
2018-Jan-18 19:00N 37°48' W 122°30'1 1.2
2018-Jan-18 18:30N 37°49' W 122°30'1 2.7
2018-Jan-18 18:00N 37°49' W 122°28'5 9.2
2018-Jan-18 17:30N 37°51' W 122°23'2 3.2
2018-Jan-18 16:53N 37°49' W 122°22'0 0.0
2018-Jan-18 16:26N 37°49' W 122°22'0 0.0
2018-Jan-18 15:50N 37°49' W 122°22'0 0.1
2018-Jan-18 15:29N 37°49' W 122°22'1 2.5
2018-Jan-18 15:00N 37°48' W 122°20'0 0.5
2018-Jan-18 14:30N 37°49' W 122°20'1 1.1
2018-Jan-18 14:00N 37°49' W 122°20'1 2.4
2018-Jan-18 13:30N 37°48' W 122°21'0 0.4
2018-Jan-18 13:01N 37°48' W 122°21'0 0.8
2018-Jan-18 12:30N 37°48' W 122°21'1 3.0
2018-Jan-18 12:01N 37°48' W 122°19'0 0.0
2018-Jan-18 11:31N 37°48' W 122°19'0 0.4
2018-Jan-18 11:00N 37°48' W 122°19'0 0.0
2018-Jan-18 10:30N 37°48' W 122°19'0 0.0
2018-Jan-18 10:00N 37°48' W 122°19'5 9.5
2018-Jan-18 09:30N 37°49' W 122°25'510.1
2018-Jan-18 09:00N 37°49' W 122°31'1 2.2
2018-Jan-18 08:30N 37°49' W 122°30'4 8.8
2018-Jan-18 08:01N 37°51' W 122°25'4 8.2
2018-Jan-18 07:30N 37°55' W 122°25'1 1.5
2018-Jan-18 07:00N 37°56' W 122°25'0 0.6
2018-Jan-18 06:30N 37°55' W 122°25'0 0.0
2018-Jan-18 06:00N 37°55' W 122°25'0 0.0
2018-Jan-18 05:30N 37°55' W 122°25'0 0.0
2018-Jan-18 05:00N 37°55' W 122°25'0 0.0
2018-Jan-18 04:30N 37°55' W 122°25'0 0.0
2018-Jan-18 04:00N 37°55' W 122°25'0 0.0
2018-Jan-18 03:20N 37°55' W 122°25'2 5.7
2018-Jan-18 03:00N 37°53' W 122°25'5 9.2
2018-Jan-18 02:31N 37°50' W 122°22'4 7.1
2018-Jan-18 02:01N 37°47' W 122°18'0 0.9
2018-Jan-18 01:30N 37°48' W 122°17'1 2.6
2018-Jan-18 01:00N 37°48' W 122°19'1 1.0
2018-Jan-18 00:01N 37°47' W 122°18'0 3.9
2018-Jan-17 23:58N 37°48' W 122°18'  

Dump ship's entire track history